Lynden, Washington
Current Conditions -  °F | °C
As of 8:00 AM on Friday 24 Oct 2014 (Local Time) from CYXX Reporting Station
Broken Clouds Broken Clouds  
Wind Chill: 45°   Ceiling: 5000
Heat Index: 45°   Visibility: 30mi
Dew Point: 45°   Wind: 3mph
Humidity: 100%   Direction: 50°NE
Pressure: 30.07"   Gusts: NA
Location:  48.94°N, 122.45°W
Report Text: CYXX 241500Z 05003KT 30SM BKN050 BKN100 07/07 A3007 RMK SC5AC2 SLP185
Loading
Personal Weather Stations






























Interactive Weather Map
Tropical Storm Tracking
New forecast layout! Learn more

10-Day Weather Forecast

Advertisements
Track Severe Weather on mobile